Fairview, UT

2:49 PM MDT on September 02, 2015 (GMT -0600)
Carbon County | | Change Station
CLOSE
Current Station
Airport
Location: Price,
Elevation: 5955 ft
Nearby Weather Stations

Elev 5955 ft 39.61 °N, 110.75 °W | Updated 56 minutes ago

Clear
Clear
82 °F
Feels Like 82 °F
N
10
Wind Variable Wind from South
Gusts 21 mph

Today
High -- | Low -- °F
--% Chance of Precip.
Yesterday
High -- | Low -- °F
Precip. -- in
6:54 AM 7:55 PM
Waning Gibbous, 77% visible
Pressure 29.91 in
Visibility 10.0 miles
Clouds Few 7500 ft
Dew Point 41 °F
Humidity 23%
Rainfall 0.00 in
Snow Depth Not available.
UV 9 out of 12
Pollen 9.10 out of 12
Air Quality Not available.
Flu Activity Not available.
METAR KPUC 021953Z AUTO 18009G18KT 140V230 10SM FEW075 28/05 A3014 RMK AO2 SLP126 T02780050
Pressure 29.91 in
Visibility 10.0 miles
Clouds Few 7500 ft
Dew Point 41 °F
Humidity 23%
Rainfall 0.00 in
Snow Depth Not available.
UV 9 out of 12
Pollen 9.10 out of 12
Air Quality Not available.
Flu Activity Not available.
METAR KPUC 021953Z AUTO 18009G18KT 140V230 10SM FEW075 28/05 A3014 RMK AO2 SLP126 T02780050

10-Day Weather Forecast

×

Almanac

Astronomy

Sep. 02, 2015 Rise Set
Actual Time
Civil Twilight
Nautical Twilight
Astronomical Twilight
Moon
Length of Visible Light
Length of Day
Tomorrow will be .
, % of the Moon is Illuminated

Today's Extremes

State Highs State Lows

Community

WunderPhotos

Upload Photos

1,851,806 photos uploaded!

WunderBlogs® & News

Nearby

Air Quality

  Air Quality AQ Index Pollutant
Not available.

Snow Depth

Station Depth Elevation

Earthquake Activity

City Distance Mag. Time & Date
Minimum magnitude displayed is 2.5.

Coastal Water Temperatures

Place Temperature

Stations

Nearby Weather Stations

Station Location Temp. Windchill Dew Point Humidity Wind Precip. Elev Updated Type